Tiempo atmosférico en la estación meteorológica de Fonfría, Teruel (1262 m.)



Fecha
DESCASC
Temp. máxima en grados centígrados (hora)
DESCASC
Temp. mínima en grados centígrados (hora)
DESCASC
Temp. media en grados centígrados
DESCASC
Racha de viento máxima en m/sg (hora)
DESCASC
Velocidad máxima media en intervalos de 10 minutos(hora)
DESCASC
Precipitaciones diarias en mm
DESCASC
Precipitaciones de 00:00 a 06:00 en mm
DESCASC
Precipitaciones de 06:00 a 12:00 en mm
DESCASC
Precipitaciones de 12:00 a 18:00 en mm
DESCASC
Precipitaciones de 18:00 a 24:00 en mm
DESCASC
20-09-2018 26.1 (15:20) 14.6 (05:10) 20.4 8.33 (18:40) 6.67 (23:59) 0.2 0 0 0 0.2
19-09-2018 23.8 (13:00) 13.2 (08:00) 18.5 6.67 (14:50) 3.89 (17:00) 0 0 0 0 0
18-09-2018 24.4 (15:00) 12.5 (06:40) 18.4 10.83 (01:00) 8.06 (00:50) 0 0 0 0 0
17-09-2018 26 (13:30) 13.9 (21:40) 19.9 12.22 (23:20) 9.72 (23:20) 8.4 0 0 2 6.4
16-09-2018 25.5 (14:00) 12.8 (00:00) 19.2 6.94 (00:10) 6.11 (00:10) 0 0 0 0 0
15-09-2018 23.4 (13:50) 12.7 (00:00) 18 10.28 (17:00) 5.83 (23:59) 0 0 0 0 0
14-09-2018 25.1 (15:10) 12.8 (00:00) 19 6.67 (16:20) 3.89 (17:40) 0 0 0 0 0
13-09-2018 24 (16:50) 13.1 (00:00) 18.6 -- (--) -- (--) 0 0 0 0 0
12-09-2018 23 (15:20) 12.9 (00:00) 17.9 11.11 (07:10) 7.5 (06:30) 2.4 0 2.4 0 0
11-09-2018 21.4 (13:30) 13.3 (00:00) 17.3 8.89 (13:00) 5.56 (13:10) 0 0 0 0 0
10-09-2018 21.2 (15:30) 13 (00:00) 17.1 8.89 (00:10) 6.39 (00:10) 0 0 0 0 0
09-09-2018 22.4 (13:30) 13 (00:00) 17.7 10 (18:20) 7.22 (00:10) 0 0 0 0 0
08-09-2018 23.1 (16:50) 11.9 (00:00) 17.5 11.11 (13:50) 6.67 (23:59) 0 0 0 0 0
07-09-2018 20.9 (14:20) 10.1 (00:00) 15.5 10.28 (15:20) 4.17 (16:40) 0 0 0 0 0
06-09-2018 19 (14:10) 11.5 (00:00) 15.3 7.5 (21:40) 4.72 (21:40) 0 0 0 0 0
05-09-2018 24 (13:10) 13 (00:00) 18.5 9.17 (07:00) 7.5 (07:00) 0.2 0 0 0 0.2
04-09-2018 23.9 (11:40) 13.2 (00:00) 18.5 12.5 (16:40) 6.11 (01:50) 7 0 0 3.6 3.4
03-09-2018 27.4 (16:20) 16 (00:00) 21.7 14.72 (05:20) 8.33 (21:50) 3.2 1.8 1.4 0 0
02-09-2018 27.7 (15:00) 14.9 (00:00) 21.3 6.67 (12:40) 3.89 (17:30) 0 0 0 0 0
01-09-2018 25.2 (17:10) 13 (00:00) 19.1 7.22 (15:50) 4.17 (15:50) 0 0 0 0 0
31-08-2018 22.9 (15:30) 14 (00:00) 18.4 7.5 (16:40) 4.72 (16:30) 0 0 0 0 0
30-08-2018 24.4 (15:00) 12.5 (00:00) 18.4 10.83 (17:30) 7.22 (17:30) 4.2 0 0 4.2 0
29-08-2018 23.5 (11:40) 15.2 (00:00) 19.3 13.33 (00:10) 8.89 (00:20) 0 0 0 0 0
28-08-2018 29.9 (16:10) 15.9 (00:00) 22.9 18.06 (23:50) 10.83 (23:30) 3.4 0 0 0 3.4
27-08-2018 28 (17:10) 15.1 (00:00) 21.6 7.22 (17:10) 3.89 (14:20) 0 0 0 0 0
26-08-2018 26 (17:40) 9.3 (00:00) 17.7 8.61 (13:30) 5 (14:20) 0 0 0 0 0
25-08-2018 22.8 (14:40) 10.2 (00:00) 16.5 7.22 (17:10) 4.72 (16:40) 0 0 0 0 0

Gráficas

Temp. máximas Temp. mínimas Temp. medias Precipitaciones Rachas de viento máximas Velocidades máximas media en intervalos de 10 minutos

Datos horarios

Fecha y hora oficial Temperatura (ºC) Velocidad del viento (km/h) Dirección del viento Racha (km/h) Dirección de racha Precipitación (mm) Presión (hPa) Tendencia (hPa) Humedad (%)
2018-09-23 23:00:00 18.8 18 Norte 35 Nordeste 0 -- -- 63
2018-09-23 22:00:00 20.7 13 Norte 22 Norte 0 -- -- 48
2018-09-23 21:00:00 21.3 6 Norte 19 Nordeste 0 -- -- 47
2018-09-23 20:00:00 22.9 10 Nordeste 20 Norte 0 -- -- 43
2018-09-23 19:00:00 25.2 13 Norte 25 Noroeste 0 -- -- 37
2018-09-23 18:00:00 27.1 10 Norte 21 Noroeste 0 -- -- 35
2018-09-23 17:00:00 27.5 8 Norte 24 Norte 0 -- -- 33
2018-09-23 16:00:00 27.6 13 Norte 27 Noroeste 0 -- -- 35
2018-09-23 15:00:00 27.6 18 Norte 27 Noroeste 0 -- -- 33
2018-09-23 14:00:00 27.7 9 Noroeste 21 Oeste 0 -- -- 34
2018-09-23 13:00:00 26.8 6 Noroeste 19 Sudoeste 0 -- -- 36
2018-09-23 12:00:00 26.5 6 Sur 13 Sudoeste 0 -- -- 39
2018-09-23 11:00:00 23.9 2 Noroeste 6 Nordeste 0 -- -- 48
2018-09-23 10:00:00 22.3 3 Nordeste 4 Este 0 -- -- 51
2018-09-23 09:00:00 19.1 0 Calma 6 Sudoeste 0 -- -- 65
2018-09-23 08:00:00 14.9 3 Oeste 8 Sudoeste 0 -- -- 70
2018-09-23 07:00:00 15.5 6 Sudoeste 11 Sudoeste 0 -- -- 69
2018-09-23 06:00:00 15.8 5 Oeste 9 Oeste 0 -- -- 66
2018-09-23 05:00:00 15.8 4 Oeste 8 Oeste 0 -- -- 65
2018-09-23 04:00:00 15.6 2 Noroeste 5 Sudoeste 0 -- -- 70
2018-09-23 03:00:00 15.9 3 Sudoeste 10 Oeste 0 -- -- 69
2018-09-23 02:00:00 16.4 0 Calma 8 Noroeste 0 -- -- 68
2018-09-23 01:00:00 18 6 Noroeste 16 Noroeste 0 -- -- 62
2018-09-23 00:00:00 18.7 5 Noroeste 12 Noroeste 0 -- -- 60
2018-09-22 23:00:00 18.3 5 Noroeste 9 Noroeste 0 -- -- 56
2018-09-22 22:00:00 18.3 5 Oeste 8 Oeste 0 -- -- 55
2018-09-22 21:00:00 19.6 0 Calma 9 Este 0 -- -- 50
2018-09-22 20:00:00 21.4 3 Este 13 Nordeste 0 -- -- 46
2018-09-22 19:00:00 23.6 8 Nordeste 19 Norte 0 -- -- 40
2018-09-22 18:00:00 25.9 9 Noroeste 23 Noroeste 0 -- -- 32
2018-09-22 17:00:00 26 16 Noroeste 24 Noroeste 0 -- -- 33
2018-09-22 16:00:00 26 19 Noroeste 32 Noroeste 0 -- -- 36
2018-09-22 15:00:00 26.1 15 Noroeste 34 Noroeste 0 -- -- 37
2018-09-22 14:00:00 25.4 21 Noroeste 31 Noroeste 0 -- -- 40
2018-09-22 13:00:00 24.7 18 Noroeste 28 Norte 0 -- -- 43
2018-09-22 12:00:00 24.3 15 Norte 25 Norte 0 -- -- 45
2018-09-22 11:00:00 23.1 14 Oeste 24 Sudoeste 0 -- -- 53
2018-09-22 10:00:00 21.4 14 Oeste 25 Oeste 0 -- -- 57
2018-09-22 09:00:00 18.9 15 Sudoeste 23 Sudoeste 0 -- -- 64
2018-09-22 08:00:00 16.1 19 Sudoeste 23 Sudoeste 0 -- -- 75
2018-09-22 07:00:00 15.8 19 Sudoeste 23 Sudoeste 0 -- -- 76
2018-09-22 06:00:00 14.6 19 Sudoeste 24 Sudoeste 0 -- -- 74
2018-09-22 05:00:00 13.9 4 Oeste 13 Sudoeste 0 -- -- 77
2018-09-22 04:00:00 13.4 4 Sudeste 10 Sur 0 -- -- 76
2018-09-22 03:00:00 13.6 4 Sudeste 6 Sur 0 -- -- 76
2018-09-22 02:00:00 14.4 0 Calma 8 Noroeste 0 -- -- 71
2018-09-22 01:00:00 14.4 5 Oeste 7 Oeste 0 -- -- 72
2018-09-22 00:00:00 15.3 2 Noroeste 18 Norte 0 -- -- 69
2018-09-21 23:00:00 16.1 13 Noroeste 20 Noroeste 0 -- -- 67
2018-09-21 22:00:00 17.2 12 Norte 17 Noroeste 0 -- -- 63
2018-09-21 21:00:00 18.3 8 Noroeste 14 Noroeste 0 -- -- 63
2018-09-21 20:00:00 20.5 8 Norte 23 Nordeste 0 -- -- 56
2018-09-21 19:00:00 22.9 11 Nordeste 18 Este 0 -- -- 50
2018-09-21 18:00:00 24.2 8 Nordeste 22 Nordeste 0 -- -- 48
2018-09-21 17:00:00 25 14 Noroeste 28 Noroeste 0 -- -- 40
2018-09-21 16:00:00 26 15 Noroeste 28 Noroeste 0 -- -- 40
2018-09-21 15:00:00 25.2 12 Noroeste 24 Noroeste 0 -- -- 42
2018-09-21 14:00:00 25.4 12 Noroeste 27 Noroeste 0 -- -- 43
2018-09-21 13:00:00 24.7 16 Noroeste 24 Noroeste 0 -- -- 43
2018-09-21 12:00:00 22.5 16 Norte 28 Norte 0 -- -- 52
2018-09-21 11:00:00 21.9 18 Norte 29 Noroeste 0 -- -- 53
2018-09-21 10:00:00 20.6 10 Norte 21 Oeste 0 -- -- 58
2018-09-21 09:00:00 20.2 12 Oeste 27 Oeste 0 -- -- 54
2018-09-21 08:00:00 18.1 15 Oeste 27 Oeste 0 -- -- 55
2018-09-21 07:00:00 17.8 16 Oeste 30 Oeste 0 -- -- 59
2018-09-21 06:00:00 17.8 19 Oeste 27 Oeste 0 -- -- 61
2018-09-21 05:00:00 17.3 16 Oeste 23 Oeste 0 -- -- 65
2018-09-21 04:00:00 16.9 16 Sudoeste 27 Sudoeste 0 -- -- 68
2018-09-21 03:00:00 15.6 23 Sudoeste 26 Sudoeste 0 -- -- 81
2018-09-21 02:00:00 16.2 18 Sudoeste 26 Sudoeste 0 -- -- 81
2018-09-21 01:00:00 16.4 26 Sudoeste 28 Sudoeste 0 -- -- 81
2018-09-21 00:00:00 17.7 24 Sudoeste 27 Sudoeste 0 -- -- 76
2018-09-20 23:00:00 17.4 7 Oeste 10 Sudoeste 0 -- -- 67
2018-09-20 22:00:00 17.8 6 Sudoeste 9 Sudoeste 0 -- -- 66
2018-09-20 21:00:00 17.5 6 Sur 13 Sudoeste 0 -- -- 69
2018-09-20 20:00:00 18.6 15 Sudoeste 21 Sudoeste 0 -- -- 73
2018-09-20 19:00:00 19.1 19 Sudoeste 30 Sudoeste 0.2 -- -- 67
2018-09-20 18:00:00 23.1 4 Sudeste 15 Sudeste 0 -- -- 51
2018-09-20 17:00:00 24.2 11 Sudeste 20 Este 0 -- -- 47
2018-09-20 16:00:00 25.9 11 Sudeste 21 Este 0 -- -- 42
2018-09-20 15:00:00 24.4 6 Nordeste 15 Norte 0 -- -- 44
2018-09-20 14:00:00 24.4 8 Nordeste 20 Nordeste 0 -- -- 48
2018-09-20 13:00:00 23.6 8 Norte 18 Sudoeste 0 -- -- 51
2018-09-20 12:00:00 24.7 6 Sudeste 10 Este 0 -- -- 46
2018-09-20 11:00:00 23.1 3 Nordeste 8 Norte 0 -- -- 50
2018-09-20 10:00:00 21.3 3 Norte 5 Norte 0 -- -- 62
2018-09-20 09:00:00 18 0 Calma 5 Noroeste 0 -- -- 65
2018-09-20 08:00:00 15 4 Oeste 6 Sudoeste 0 -- -- 67
2018-09-20 07:00:00 15 4 Oeste 6 Oeste 0 -- -- 74
2018-09-20 06:00:00 14.9 3 Noroeste 14 Sudoeste 0 -- -- 77
2018-09-20 05:00:00 14.8 15 Sudoeste 21 Sudoeste 0 -- -- 80
2018-09-20 04:00:00 15.3 16 Sudoeste 19 Sudoeste 0 -- -- 75
2018-09-20 03:00:00 16.2 3 Sudeste 11 Sur 0 -- -- 70
2018-09-20 02:00:00 16 4 Sur 7 Sur 0 -- -- 72
2018-09-20 01:00:00 16.1 7 Sur 12 Sur 0 -- -- 70
2018-09-20 00:00:00 16.5 3 Sur 6 Sur 0 -- -- 72
2018-09-19 23:00:00 16.6 2 Sudeste 8 Sur 0 -- -- 74
2018-09-19 22:00:00 17.3 5 Sur 8 Sur 0 -- -- 71
2018-09-19 21:00:00 18.4 3 Sur 7 Sudeste 0 -- -- 64
2018-09-19 20:00:00 19.9 5 Sudeste 15 Este 0 -- -- 59
2018-09-19 19:00:00 22.1 9 Este 17 Este 0 -- -- 53
2018-09-19 18:00:00 23.5 8 Nordeste 19 Nordeste 0 -- -- 51
2018-09-19 17:00:00 23.8 14 Nordeste 22 Nordeste 0 -- -- 54
2018-09-19 16:00:00 22.7 6 Este 17 Este 0 -- -- 56
2018-09-19 15:00:00 22.1 7 Nordeste 24 Nordeste 0 -- -- 56
2018-09-19 14:00:00 22.5 9 Norte 23 Noroeste 0 -- -- 53
2018-09-19 13:00:00 23.8 7 Sudeste 16 Este 0 -- -- 55
2018-09-19 12:00:00 22.7 7 Norte 12 Nordeste 0 -- -- 58
2018-09-19 11:00:00 22.3 3 Este 7 Este 0 -- -- 62
2018-09-19 10:00:00 20.2 3 Nordeste 4 Nordeste 0 -- -- 72
2018-09-19 09:00:00 17.1 0 Calma 6 Sudoeste 0 -- -- 85
2018-09-19 08:00:00 13.2 0 Calma 6 Sudoeste 0 -- -- 92
2018-09-19 07:00:00 13.4 3 Oeste 5 Oeste 0 -- -- 92
2018-09-19 06:00:00 13.7 0 Calma 6 Noroeste 0 -- -- 91
2018-09-19 05:00:00 13.9 3 Oeste 6 Sudoeste 0 -- -- 91
2018-09-19 04:00:00 14 4 Oeste 10 Sudoeste 0 -- -- 92
2018-09-19 03:00:00 14.3 5 Sudoeste 11 Sudoeste 0 -- -- 93
2018-09-19 02:00:00 14.4 5 Sur 8 Sur 0 -- -- 89
2018-09-19 01:00:00 13.9 0 Calma 6 Noroeste 0 -- -- 89
2018-09-19 00:00:00 15.1 4 Noroeste 18 Sudoeste 0 -- -- 86
2018-09-18 23:00:00 16 15 Sudoeste 21 Sudoeste 0 -- -- 84
2018-09-18 22:00:00 17 3 Oeste 17 Sur 0 -- -- 79
2018-09-18 21:00:00 17.7 9 Sur 12 Sur 0 -- -- 76
2018-09-18 20:00:00 18.3 5 Nordeste 13 Nordeste 0 -- -- 71
2018-09-18 19:00:00 19.6 10 Nordeste 20 Nordeste 0 -- -- 68
2018-09-18 18:00:00 21.5 9 Este 19 Este 0 -- -- 64
2018-09-18 17:00:00 21.7 9 Nordeste 22 Sudeste 0 -- -- 62
2018-09-18 16:00:00 21.4 8 Nordeste 21 Norte 0 -- -- 62
2018-09-18 15:00:00 24.4 7 Noroeste 17 Noroeste 0 -- -- 49
2018-09-18 14:00:00 22.7 6 Norte 15 Oeste 0 -- -- 52
2018-09-18 13:00:00 22.1 6 Noroeste 12 Noroeste 0 -- -- 58
2018-09-18 12:00:00 21.3 4 Noroeste 18 Norte 0 -- -- 65
2018-09-18 11:00:00 20.6 9 Norte 15 Norte 0 -- -- 69
2018-09-18 10:00:00 19.3 4 Noroeste 8 Noroeste 0 -- -- 71
2018-09-18 09:00:00 16.6 0 Calma 11 Oeste 0 -- -- 77
2018-09-18 08:00:00 13.4 4 Oeste 17 Sudoeste 0 -- -- 87
2018-09-18 07:00:00 12.7 8 Sudoeste 24 Sudoeste 0 -- -- 91
2018-09-18 06:00:00 14 2 Sur 18 Sudoeste 0 -- -- 82
2018-09-18 05:00:00 14.3 10 Sudoeste 22 Sudoeste 0 -- -- 84
2018-09-18 04:00:00 14.4 17 Sudoeste 30 Sudoeste 0 -- -- 83
2018-09-18 03:00:00 13.7 20 Sudoeste 25 Sudoeste 0 -- -- 84
2018-09-18 02:00:00 13.3 4 Oeste 35 Sudoeste 0 -- -- 90
2018-09-18 01:00:00 14 28 Sudoeste 39 Sudoeste 0 -- -- 89
2018-09-18 00:00:00 14.8 31 Sur 44 Sudoeste 0 -- -- 83
2018-09-17 23:00:00 14.8 24 Sudoeste 31 Sudoeste 0 -- -- 82
2018-09-17 22:00:00 14 13 Sur 23 Sur 0 -- -- 85
2018-09-17 21:00:00 14.4 17 Sur 23 Sur 0.8 -- -- 84
2018-09-17 20:00:00 14.9 13 Sudeste 32 Sur 3 -- -- 84
2018-09-17 19:00:00 16 13 Sur 20 Sur 2.6 -- -- 89
2018-09-17 18:00:00 16.7 11 Sudeste 21 Este 1 -- -- 88
2018-09-17 17:00:00 18.6 12 Sudeste 20 Este 0 -- -- 81
2018-09-17 16:00:00 19.7 9 Este 20 Este 1 -- -- 79
2018-09-17 15:00:00 23 14 Nordeste 24 Norte 0 -- -- 59
2018-09-17 14:00:00 23.8 14 Nordeste 23 Norte 0 -- -- 56
2018-09-17 13:00:00 25.6 6 Oeste 20 Sur 0 -- -- 39
2018-09-17 12:00:00 23.8 8 Este 20 Nordeste 0 -- -- 50
2018-09-17 11:00:00 22.8 5 Nordeste 10 Nordeste 0 -- -- 55
2018-09-17 10:00:00 21.2 3 Nordeste 5 Nordeste 0 -- -- 60
2018-09-17 09:00:00 18.2 3 Noroeste 7 Sur 0 -- -- 75
2018-09-17 08:00:00 14.5 3 Sudeste 14 Sudoeste 0 -- -- 86
2018-09-17 07:00:00 14.2 14 Sudoeste 26 Sudoeste 0 -- -- 92
2018-09-17 06:00:00 14.3 24 Sudoeste 28 Sudoeste 0 -- -- 93
2018-09-17 05:00:00 14.7 23 Sudoeste 27 Sudoeste 0 -- -- 93
2018-09-17 04:00:00 15 23 Sudoeste 27 Sudoeste 0 -- -- 89
2018-09-17 03:00:00 15 13 Sudoeste 19 Sudoeste 0 -- -- 82
2018-09-17 02:00:00 15 5 Sur 21 Sudoeste 0 -- -- 68
2018-09-17 01:00:00 16.4 4 Sudeste 14 Sur 0 -- -- 57
2018-09-17 00:00:00 16.4 6 Sudeste 10 Sudeste 0 -- -- 58
2018-09-16 23:00:00 17.2 9 Sur 11 Sur 0 -- -- 54
2018-09-16 22:00:00 17.4 4 Sudeste 12 Sur 0 -- -- 56
2018-09-16 21:00:00 18.3 6 Sur 12 Sur 0 -- -- 54
2018-09-16 20:00:00 20.5 4 Sudeste 17 Este 0 -- -- 49
2018-09-16 19:00:00 22.5 9 Este 24 Nordeste 0 -- -- 46
2018-09-16 18:00:00 24.1 10 Nordeste 25 Nordeste 0 -- -- 42
2018-09-16 17:00:00 24.3 10 Este 21 Este 0 -- -- 42
2018-09-16 16:00:00 24.7 8 Este 18 Norte 0 -- -- 43
2018-09-16 15:00:00 23.9 6 Nordeste 22 Nordeste 0 -- -- 45
2018-09-16 14:00:00 25.5 5 Oeste 17 Norte 0 -- -- 44
2018-09-16 13:00:00 23.8 8 Noroeste 15 Norte 0 -- -- 48
2018-09-16 12:00:00 22.3 6 Nordeste 12 Norte 0 -- -- 53
2018-09-16 11:00:00 21.3 4 Este 10 Noroeste 0 -- -- 59
2018-09-16 10:00:00 18.8 3 Norte 6 Noroeste 0 -- -- 69
2018-09-16 09:00:00 16.2 2 Nordeste 4 Noroeste 0 -- -- 73
2018-09-16 08:00:00 13.2 4 Noroeste 6 Oeste 0 -- -- 85
2018-09-16 07:00:00 12.9 4 Oeste 18 Sudoeste 0 -- -- 85
2018-09-16 06:00:00 13.1 9 Sudoeste 13 Sudoeste 0 -- -- 79
2018-09-16 05:00:00 13.1 3 Oeste 9 Oeste 0 -- -- 75
2018-09-16 04:00:00 13 4 Oeste 7 Oeste 0 -- -- 75
2018-09-16 03:00:00 13.9 4 Oeste 7 Oeste 0 -- -- 75
2018-09-16 02:00:00 14.4 4 Oeste 24 Sudoeste 0 -- -- 75
2018-09-16 01:00:00 14.2 20 Sudoeste 25 Sudoeste 0 -- -- 73
2018-09-16 00:00:00 14 21 Sudoeste 25 Sudoeste 0 -- -- 74
2018-09-15 23:00:00 15.3 11 Sur 19 Sur 0 -- -- 70
2018-09-15 22:00:00 15.7 14 Sur 20 Sur 0 -- -- 76
2018-09-15 21:00:00 16.3 10 Sur 16 Sudeste 0 -- -- 76
2018-09-15 20:00:00 18.5 12 Sudeste 24 Este 0 -- -- 69
2018-09-15 19:00:00 20.1 15 Este 24 Este 0 -- -- 61
2018-09-15 18:00:00 21.4 14 Este 28 Este 0 -- -- 58
2018-09-15 17:00:00 21.9 18 Nordeste 37 Nordeste 0 -- -- 58
2018-09-15 16:00:00 22.8 13 Nordeste 24 Nordeste 0 -- -- 53
2018-09-15 15:00:00 22.7 11 Nordeste 22 Nordeste 0 -- -- 56
2018-09-15 14:00:00 23.3 12 Nordeste 23 Este 0 -- -- 57
2018-09-15 13:00:00 23 6 Nordeste 25 Este 0 -- -- 54
2018-09-15 12:00:00 21.5 9 Sudeste 26 Este 0 -- -- 61
2018-09-15 11:00:00 18.5 8 Sur 17 Sudeste 0 -- -- 73
2018-09-15 10:00:00 18.7 8 Sudeste 12 Sudeste 0 -- -- 72
2018-09-15 09:00:00 14.3 6 Sudeste 14 Sudeste 0 -- -- 86
2018-09-15 08:00:00 13.4 4 Sudeste 12 Sudeste 0 -- -- 86
2018-09-15 07:00:00 13.4 3 Sudeste 11 Sudeste 0 -- -- 86
2018-09-15 06:00:00 13.2 6 Sur 10 Sur 0 -- -- 87
2018-09-15 05:00:00 12.9 4 Sur 9 Sur 0 -- -- 86
2018-09-15 04:00:00 12.8 5 Sur 6 Sur 0 -- -- 87
2018-09-15 03:00:00 13.2 2 Sudoeste 5 Sudoeste 0 -- -- 88
2018-09-15 02:00:00 13.5 0 Calma 8 Noroeste 0 -- -- 84
2018-09-15 01:00:00 14.7 5 Noroeste 9 Norte 0 -- -- 77
2018-09-15 00:00:00 16.4 3 Nordeste 10 Sudeste 0 -- -- 66
2018-09-14 23:00:00 16.2 5 Sur 9 Sur 0 -- -- 66
2018-09-14 22:00:00 16.2 4 Sudeste 9 Sur 0 -- -- 66
2018-09-14 21:00:00 17.1 6 Sur 10 Sur 0 -- -- 64
2018-09-14 20:00:00 19.4 7 Este 17 Este 0 -- -- 58
2018-09-14 19:00:00 20.8 9 Este 20 Nordeste 0 -- -- 55
2018-09-14 18:00:00 21.5 13 Nordeste 23 Este 0 -- -- 53
2018-09-14 17:00:00 23.5 14 Este 24 Este 0 -- -- 50
2018-09-14 16:00:00 24.5 13 Nordeste 21 Nordeste 0 -- -- 47
2018-09-14 15:00:00 24.8 10 Este 21 Sudeste 0 -- -- 47
2018-09-14 14:00:00 24.5 9 Nordeste 15 Norte 0 -- -- 44
2018-09-14 13:00:00 23.1 8 Nordeste 18 Sudoeste 0 -- -- 47
2018-09-14 12:00:00 23.7 4 Sudoeste 12 Sudoeste 0 -- -- 43
2018-09-14 11:00:00 22.4 2 Nordeste 6 Nordeste 0 -- -- 36
2018-09-14 10:00:00 21.2 3 Este 5 Este 0 -- -- 44
2018-09-14 09:00:00 16.5 2 Sudeste 10 Sudoeste 0 -- -- 56
2018-09-14 08:00:00 13.3 4 Sudoeste 8 Oeste 0 -- -- 57
2018-09-14 07:00:00 13.5 5 Oeste 8 Oeste 0 -- -- 59
2018-09-14 06:00:00 13.4 4 Oeste 10 Oeste 0 -- -- 59
2018-09-14 05:00:00 14.4 5 Oeste 8 Oeste 0 -- -- 53
2018-09-14 04:00:00 14.3 3 Noroeste 9 Oeste 0 -- -- 54
2018-09-14 03:00:00 13.6 3 Noroeste 11 Noroeste 0 -- -- 61
2018-09-14 02:00:00 13.5 2 Este 5 Oeste 0 -- -- 69
2018-09-14 01:00:00 13.2 0 Calma 7 Este 0 -- -- 83
2018-09-14 00:00:00 13.4 2 Noroeste 8 Sudoeste 0 -- -- 86
2018-09-13 23:00:00 14.9 0 Calma 6 Sudeste 0 -- -- 81
2018-09-13 22:00:00 15.6 2 Sudeste 8 Sudeste 0 -- -- 79
2018-09-13 21:00:00 16.9 4 Sudeste 8 Sur 0 -- -- 75
2018-09-13 20:00:00 18.9 5 Nordeste 13 Nordeste 0 -- -- 69
2018-09-13 19:00:00 21 8 Nordeste 16 Nordeste 0 -- -- 62
2018-09-13 18:00:00 22.3 9 Nordeste 22 Nordeste 0 -- -- 56
2018-09-13 17:00:00 23.5 9 Norte 25 Noroeste 0 -- -- 47
2018-09-13 16:00:00 23.4 8 Norte -- -- -- -- -- 48
2018-09-13 15:00:00 -- -- -- -- -- -- -- -- --
2018-09-13 14:00:00 22.4 9 Nordeste 24 Noroeste 0 -- -- 54
2018-09-13 13:00:00 22.6 7 Norte 15 Norte 0 -- -- 42
2018-09-13 12:00:00 21.6 6 Norte 12 Norte 0 -- -- 51
2018-09-13 11:00:00 20.2 8 Norte 15 Norte 0 -- -- 66
2018-09-13 10:00:00 19.2 7 Norte 16 Noroeste 0 -- -- 73
2018-09-13 09:00:00 17.3 5 Noroeste 10 Noroeste 0 -- -- 77
2018-09-13 08:00:00 13.5 5 Noroeste 12 Noroeste 0 -- -- 86
2018-09-13 07:00:00 13.4 8 Noroeste 18 Noroeste 0 -- -- 85
2018-09-13 06:00:00 13.4 7 Noroeste 13 Noroeste 0 -- -- 84
2018-09-13 05:00:00 13.7 9 Noroeste 12 Noroeste 0 -- -- 81
2018-09-13 04:00:00 14.1 8 Noroeste 12 Noroeste 0 -- -- 78
2018-09-13 03:00:00 14.1 0 Calma 6 Noroeste 0 -- -- 75
2018-09-13 02:00:00 14.7 6 Noroeste 10 Oeste 0 -- -- 71
2018-09-13 01:00:00 15 0 Calma 8 Noroeste 0 -- -- 71
2018-09-13 00:00:00 15.2 4 Noroeste 10 Oeste 0 -- -- 73
2018-09-12 23:00:00 15.4 2 Oeste 9 Oeste 0 -- -- 78
2018-09-12 22:00:00 16 6 Oeste 8 Oeste 0 -- -- 77
2018-09-12 21:00:00 17.6 4 Oeste 12 Norte 0 -- -- 73
2018-09-12 20:00:00 19.4 8 Noroeste 15 Norte 0 -- -- 65
2018-09-12 19:00:00 20.9 9 Norte 27 Noroeste 0 -- -- 55
2018-09-12 18:00:00 22.2 17 Noroeste 29 Noroeste 0 -- -- 47
2018-09-12 17:00:00 22.3 17 Noroeste 32 Noroeste 0 -- -- 51
2018-09-12 16:00:00 22.3 17 Noroeste 31 Norte 0 -- -- 54
2018-09-12 15:00:00 22.5 13 Noroeste 32 Noroeste 0 -- -- 56
2018-09-12 14:00:00 21.7 13 Oeste 27 Oeste 0 -- -- 59
2018-09-12 13:00:00 18.9 9 Norte 24 Norte 0 -- -- 71
2018-09-12 12:00:00 19.2 13 Norte 23 Sudoeste 0 -- -- 71
2018-09-12 11:00:00 18.1 17 Oeste 32 Oeste 0 -- -- 72
2018-09-12 10:00:00 16 20 Sudoeste 32 Sudoeste 0 -- -- 80
2018-09-12 09:00:00 13.2 18 Sudoeste 24 Sudoeste 0 -- -- 88
2018-09-12 08:00:00 13 14 Sudoeste 40 Oeste 2.2 -- -- 89
2018-09-12 07:00:00 14.5 19 Oeste 36 Oeste 0.2 -- -- 88
2018-09-12 06:00:00 14.5 24 Sudoeste 31 Sudoeste 0 -- -- 87
2018-09-12 05:00:00 14.4 11 Sudoeste 15 Sudoeste 0 -- -- 87
2018-09-12 04:00:00 15.1 3 Sudoeste 9 Sudoeste 0 -- -- 83
2018-09-12 03:00:00 14.9 3 Sur 18 Sudoeste 0 -- -- 84
2018-09-12 02:00:00 14.7 14 Sudoeste 18 Sudoeste 0 -- -- 86
2018-09-12 01:00:00 16.1 10 Sur 18 Sudoeste 0 -- -- 83
2018-09-12 00:00:00 15.4 6 Sudeste 12 Sudeste 0 -- -- 88
2018-09-11 23:00:00 15.7 0 Calma 9 Sudeste 0 -- -- 85
2018-09-11 22:00:00 15.9 7 Sur 10 Sur 0 -- -- 83
2018-09-11 21:00:00 15.7 6 Sur 14 Sudeste 0 -- -- 85
2018-09-11 20:00:00 17 12 Sudeste 24 Este 0 -- -- 80
2018-09-11 19:00:00 18.5 15 Este 24 Este 0 -- -- 73
2018-09-11 18:00:00 20 9 Sudeste 21 Este 0 -- -- 69
2018-09-11 17:00:00 17.4 10 Este 16 Este 0 -- -- 81
2018-09-11 16:00:00 17.6 9 Nordeste 26 Nordeste 0 -- -- 76
2018-09-11 15:00:00 20.5 12 Este 20 Nordeste 0 -- -- 59
2018-09-11 14:00:00 20.8 11 Este 32 Sudeste 0 -- -- 53
2018-09-11 13:00:00 19.1 18 Sudeste 32 Sudeste 0 -- -- 66
2018-09-11 12:00:00 20.5 17 Sudeste 29 Este 0 -- -- 64
2018-09-11 11:00:00 19.7 15 Este 28 Este 0 -- -- 67
2018-09-11 10:00:00 19.1 13 Este 18 Este 0 -- -- 66
2018-09-11 09:00:00 15.8 5 Sur 8 Sudeste 0 -- -- 77
2018-09-11 08:00:00 14 5 Sur 10 Sur 0 -- -- 80
2018-09-11 07:00:00 14.2 5 Sur 7 Sur 0 -- -- 79
2018-09-11 06:00:00 14 4 Sur 7 Sur 0 -- -- 81
2018-09-11 05:00:00 13.8 5 Sur 6 Sur 0 -- -- 82
2018-09-11 04:00:00 13.5 4 Sur 6 Sur 0 -- -- 81
2018-09-11 03:00:00 14.1 0 Calma 10 Sudeste 0 -- -- 79
2018-09-11 02:00:00 14.2 6 Sur 10 Sur 0 -- -- 82
2018-09-11 01:00:00 14.4 5 Sur 9 Sur 0 -- -- 85
2018-09-11 00:00:00 14.6 6 Sur 11 Sudeste 0 -- -- 85
2018-09-10 23:00:00 15.1 7 Sudeste 13 Sudeste 0 -- -- 83
2018-09-10 22:00:00 15.3 4 Sur 9 Sur 0 -- -- 84
2018-09-10 21:00:00 16.3 6 Sur 15 Este 0 -- -- 80
2018-09-10 20:00:00 18.2 10 Este 23 Este 0 -- -- 73
2018-09-10 19:00:00 19.7 14 Este 29 Sudeste 0 -- -- 67
2018-09-10 18:00:00 20.2 13 Nordeste 26 Nordeste 0 -- -- 65
2018-09-10 17:00:00 20 15 Nordeste 30 Nordeste 0 -- -- 65
2018-09-10 16:00:00 19.7 14 Este 26 Este 0 -- -- 67
2018-09-10 15:00:00 19.9 11 Este 21 Nordeste 0 -- -- 67
2018-09-10 14:00:00 19.5 4 Nordeste 17 Nordeste 0 -- -- 72
2018-09-10 13:00:00 16.6 9 Este 18 Este 0 -- -- 83
2018-09-10 12:00:00 16.3 6 Nordeste 16 Norte 0 -- -- 87
2018-09-10 11:00:00 15 11 Nordeste 17 Nordeste 0 -- -- 92
2018-09-10 10:00:00 13.3 13 Norte 21 Norte 0 -- -- 97
2018-09-10 09:00:00 13.1 14 Norte 21 Norte 0 -- -- 97
2018-09-10 08:00:00 13.1 12 Norte 23 Norte 0 -- -- 97
2018-09-10 07:00:00 13.1 13 Norte 23 Noroeste 0 -- -- 97
2018-09-10 06:00:00 13.4 12 Norte 17 Norte 0 -- -- 96
2018-09-10 05:00:00 13.5 11 Norte 18 Noroeste 0 -- -- 95
2018-09-10 04:00:00 13.7 11 Norte 18 Norte 0 -- -- 95
2018-09-10 03:00:00 13.9 11 Norte 23 Norte 0 -- -- 94
2018-09-10 02:00:00 14.6 13 Noroeste 17 Noroeste 0 -- -- 89
2018-09-10 01:00:00 14.3 0 Calma 32 Sudoeste 0 -- -- 82
2018-09-10 00:00:00 15.4 17 Sur 31 Sur 0 -- -- 86
2018-09-09 23:00:00 16.1 15 Nordeste 22 Nordeste 0 -- -- 86
2018-09-09 22:00:00 16.5 3 Sur 5 Sudoeste 0 -- -- 69
2018-09-09 21:00:00 16.3 3 Sur 9 Sur 0 -- -- 67
2018-09-09 20:00:00 16.2 6 Sudoeste 22 Sudeste 0 -- -- 67
2018-09-09 19:00:00 16.9 17 Sudeste 36 Este 0 -- -- 65
2018-09-09 18:00:00 19.6 12 Este 19 Nordeste 0 -- -- 68
2018-09-09 17:00:00 19.8 8 Este 20 Este 0 -- -- 67
2018-09-09 16:00:00 20 14 Este 25 Nordeste 0 -- -- 68
2018-09-09 15:00:00 20.7 11 Este 18 Este 0 -- -- 62
2018-09-09 14:00:00 21.6 6 Sudeste 19 Sudeste 0 -- -- 61
2018-09-09 13:00:00 21.9 12 Sudeste 21 Sudeste 0 -- -- 60
2018-09-09 12:00:00 20.6 8 Nordeste 17 Nordeste 0 -- -- 61
2018-09-09 11:00:00 20 4 Nordeste 12 Noroeste 0 -- -- 65
2018-09-09 10:00:00 17.5 10 Norte 14 Norte 0 -- -- 80
2018-09-09 09:00:00 14 0 Calma 4 Noroeste 0 -- -- 92
2018-09-09 08:00:00 13.3 0 Calma 9 Sudoeste 0 -- -- 93
2018-09-09 07:00:00 13.1 2 Este 15 Oeste 0 -- -- 92
2018-09-09 06:00:00 13.3 3 Sudoeste 14 Sudoeste 0 -- -- 92
2018-09-09 05:00:00 14 3 Oeste 22 Oeste 0 -- -- 90
2018-09-09 04:00:00 14.9 2 Oeste 12 Noroeste 0 -- -- 89
2018-09-09 03:00:00 16 5 Oeste 26 Sudoeste 0 -- -- 81
2018-09-09 02:00:00 16.2 21 Sudoeste 28 Sudoeste 0 -- -- 79
2018-09-09 01:00:00 16.3 22 Sudoeste 35 Sudoeste 0 -- -- 82
2018-09-09 00:00:00 16.9 24 Sudoeste 30 Sudoeste 0 -- -- 80
2018-09-08 23:00:00 17 19 Sudoeste 24 Sudoeste 0 -- -- 79
2018-09-08 22:00:00 17.1 13 Sudoeste 17 Sudoeste 0 -- -- 77
2018-09-08 21:00:00 17.9 11 Sudoeste 18 Sudoeste 0 -- -- 72
2018-09-08 20:00:00 19.3 12 Sudoeste 19 Sudoeste 0 -- -- 66
2018-09-08 19:00:00 20.7 13 Sudoeste 27 Oeste 0 -- -- 60
2018-09-08 18:00:00 21.8 15 Sudoeste 25 Sur 0 -- -- 55
2018-09-08 17:00:00 23.1 14 Sur 27 Sudoeste 0 -- -- 49
2018-09-08 16:00:00 22.9 11 Sudoeste 30 Sudoeste 0 -- -- 54
2018-09-08 15:00:00 22.1 17 Sur 36 Sur 0 -- -- 56
2018-09-08 14:00:00 20.7 21 Sudoeste 40 Sur 0 -- -- 59
2018-09-08 13:00:00 21.1 21 Sur 31 Sur 0 -- -- 58
2018-09-08 12:00:00 20.1 13 Sur 28 Sudoeste 0 -- -- 64
2018-09-08 11:00:00 20 20 Sudoeste 30 Sudoeste 0 -- -- 61
2018-09-08 10:00:00 19.1 4 Sudeste 26 Sur 0 -- -- 61
2018-09-08 09:00:00 15.9 21 Sur 29 Sudoeste 0 -- -- 77
2018-09-08 08:00:00 12.2 5 Sudeste 16 Sudoeste 0 -- -- 94
2018-09-08 07:00:00 12.5 10 Sudoeste 16 Sudoeste 0 -- -- 93
2018-09-08 06:00:00 12.4 11 Sudoeste 13 Sudoeste 0 -- -- 94
2018-09-08 05:00:00 12.6 4 Sur 7 Sudeste 0 -- -- 92
2018-09-08 04:00:00 13.1 5 Sur 12 Sudoeste 0 -- -- 89
2018-09-08 03:00:00 13.4 5 Sudoeste 8 Sudoeste 0 -- -- 93
2018-09-08 02:00:00 13.8 4 Sudeste 14 Sudoeste 0 -- -- 89
2018-09-08 01:00:00 14.8 0 Calma 19 Sudoeste 0 -- -- 85
2018-09-08 00:00:00 15 12 Sudoeste 15 Sudoeste 0 -- -- 84
2018-09-07 23:00:00 15.4 6 Sur 9 Sur 0 -- -- 80
2018-09-07 22:00:00 15.8 5 Sur 10 Sudeste 0 -- -- 78
2018-09-07 21:00:00 16.6 5 Sudeste 15 Este 0 -- -- 74
2018-09-07 20:00:00 17.4 8 Este 17 Nordeste 0 -- -- 69
2018-09-07 19:00:00 18.7 12 Este 23 Este 0 -- -- 64
2018-09-07 18:00:00 18.8 11 Este 21 Nordeste 0 -- -- 63
2018-09-07 17:00:00 20.1 14 Este 25 Nordeste 0 -- -- 59
2018-09-07 16:00:00 20.9 15 Este 37 Nordeste 0 -- -- 59
2018-09-07 15:00:00 20.8 12 Este 23 Este 0 -- -- 59
2018-09-07 14:00:00 20 8 Este 19 Este 0 -- -- 63
2018-09-07 13:00:00 19.5 7 Este 14 Este 0 -- -- 61
2018-09-07 12:00:00 18.8 9 Este 17 Este 0 -- -- 64
2018-09-07 11:00:00 17.4 5 Este 11 Sudeste 0 -- -- 65
2018-09-07 10:00:00 15.1 8 Norte 12 Norte 0 -- -- 72
2018-09-07 09:00:00 13.1 5 Norte 13 Noroeste 0 -- -- 82
2018-09-07 08:00:00 10.4 7 Noroeste 15 Noroeste 0 -- -- 92
2018-09-07 07:00:00 10.1 8 Noroeste 17 Noroeste 0 -- -- 91
2018-09-07 06:00:00 10.2 8 Noroeste 16 Noroeste 0 -- -- 91
2018-09-07 05:00:00 10.8 9 Noroeste 23 Noroeste 0 -- -- 89
2018-09-07 04:00:00 10.7 9 Noroeste 21 Norte 0 -- -- 91
2018-09-07 03:00:00 11 11 Norte 22 Norte 0 -- -- 89
2018-09-07 02:00:00 11.7 13 Norte 21 Noroeste 0 -- -- 89
2018-09-07 01:00:00 11.6 11 Noroeste 17 Noroeste 0 -- -- 88
2018-09-07 00:00:00 12 11 Norte 23 Norte 0 -- -- 85
2018-09-06 23:00:00 13 14 Norte 23 Norte 0 -- -- 82
2018-09-06 22:00:00 14.3 14 Norte 27 Norte 0 -- -- 79
2018-09-06 21:00:00 15.1 12 Norte 19 Norte 0 -- -- 77
2018-09-06 20:00:00 15.4 12 Norte 23 Norte 0 -- -- 76
2018-09-06 19:00:00 17.5 11 Nordeste 20 Nordeste 0 -- -- 71
2018-09-06 18:00:00 16.5 9 Nordeste 18 Nordeste 0 -- -- 77
2018-09-06 17:00:00 17.4 12 Nordeste 20 Nordeste 0 -- -- 71
2018-09-06 16:00:00 17.5 14 Nordeste 24 Nordeste 0 -- -- 71
2018-09-06 15:00:00 18.5 13 Nordeste 22 Este 0 -- -- 67
2018-09-06 14:00:00 18.7 9 Nordeste 22 Nordeste 0 -- -- 68
2018-09-06 13:00:00 18 8 Norte 14 Nordeste 0 -- -- 71
2018-09-06 12:00:00 15.6 6 Noroeste 15 Norte 0 -- -- 83
2018-09-06 11:00:00 13.9 6 Norte 11 Norte 0 -- -- 90
2018-09-06 10:00:00 13 2 Norte 9 Nordeste 0 -- -- 95
2018-09-06 09:00:00 12.4 4 Norte 10 Norte 0 -- -- 97
2018-09-06 08:00:00 11.5 4 Norte 8 Noroeste 0 -- -- 96
2018-09-06 07:00:00 11.9 0 Calma 10 Norte 0 -- -- 97
2018-09-06 06:00:00 12.1 4 Norte 12 Noroeste 0 -- -- 97
2018-09-06 05:00:00 11.6 7 Noroeste 13 Noroeste 0 -- -- 95
2018-09-06 04:00:00 12.6 2 Nordeste 8 Sur 0 -- -- 86
2018-09-06 03:00:00 12.9 4 Sur 10 Noroeste 0 -- -- 83
2018-09-06 02:00:00 13.4 4 Este 10 Sudoeste 0 -- -- 83
2018-09-06 01:00:00 13.2 3 Oeste 9 Noroeste 0 -- -- 85
2018-09-06 00:00:00 13 5 Noroeste 18 Noroeste 0 -- -- 93
2018-09-05 23:00:00 13.7 10 Noroeste 25 Noroeste 0 -- -- 95
2018-09-05 22:00:00 15.5 9 Norte 16 Nordeste 0 -- -- 88
2018-09-05 21:00:00 16.6 8 Sudoeste 15 Sudoeste 0 -- -- 80
2018-09-05 20:00:00 17.8 5 Sudeste 19 Este 0 -- -- 84
2018-09-05 19:00:00 18 8 Este 24 Sudeste 0.2 -- -- 82
2018-09-05 18:00:00 19.3 12 Este 21 Sudeste 0 -- -- 69
2018-09-05 17:00:00 19.6 12 Este 22 Nordeste 0 -- -- 69
2018-09-05 16:00:00 20.3 17 Nordeste 26 Este 0 -- -- 62
2018-09-05 15:00:00 19.5 14 Norte 33 Norte 0 -- -- 67
2018-09-05 14:00:00 23.3 12 Sudeste 23 Sudoeste 0 -- -- 66
2018-09-05 13:00:00 23.2 10 Sudoeste 32 Sudoeste 0 -- -- 60
2018-09-05 12:00:00 22.4 21 Sudoeste 31 Sudoeste 0 -- -- 66
2018-09-05 11:00:00 20.3 22 Sudoeste 32 Sudoeste 0 -- -- 73
2018-09-05 10:00:00 19.1 23 Sudoeste 30 Sudoeste 0 -- -- 78
2018-09-05 09:00:00 17.1 10 Sudoeste 32 Sudoeste 0 -- -- 89
2018-09-05 08:00:00 15.1 27 Sudoeste 33 Sudoeste 0 -- -- 95
2018-09-05 07:00:00 15.1 27 Sudoeste 33 Sudoeste 0 -- -- 93
2018-09-05 06:00:00 14.9 15 Sudoeste 24 Sudoeste 0 -- -- 90
2018-09-05 05:00:00 15.3 6 Sudeste 14 Sudeste 0 -- -- 86
2018-09-05 04:00:00 15.1 5 Sur 10 Sur 0 -- -- 89
2018-09-05 03:00:00 14.4 4 Sudoeste 6 Sudoeste 0 -- -- 87
2018-09-05 02:00:00 14.5 4 Oeste 18 Oeste 0 -- -- 85
2018-09-05 01:00:00 15.4 9 Norte 26 Norte 0 -- -- 82
2018-09-05 00:00:00 15.6 18 Sudoeste 21 Sudoeste 0 -- -- 87
2018-09-04 23:00:00 16.4 18 Sur 24 Sur 0 -- -- 80
2018-09-04 22:00:00 16 13 Sur 22 Sur 0 -- -- 81
2018-09-04 21:00:00 16.4 14 Sur 22 Sur 0.2 -- -- 77
2018-09-04 20:00:00 16.9 6 Sur 26 Sudeste 0.6 -- -- 80
2018-09-04 19:00:00 18 14 Sudeste 22 Nordeste 2.6 -- -- 81
2018-09-04 18:00:00 19.7 10 Norte 25 Este 0.2 -- -- 67
2018-09-04 17:00:00 18.2 15 Sudeste 45 Noroeste 3.4 -- -- 76
2018-09-04 16:00:00 22 13 Sudeste 26 Este 0 -- -- 59
2018-09-04 15:00:00 22.8 14 Este 27 Sudeste 0 -- -- 53
2018-09-04 14:00:00 23.1 13 Este 21 Este 0 -- -- 52
2018-09-04 13:00:00 22.2 12 Este 21 Este 0 -- -- 57
2018-09-04 12:00:00 23.6 7 Este 13 Este 0 -- -- 52
2018-09-04 11:00:00 22.7 7 Oeste 19 Sudoeste 0 -- -- 58
2018-09-04 10:00:00 19.5 15 Sudoeste 24 Sudoeste 0 -- -- 68
2018-09-04 09:00:00 17.4 15 Sudoeste 23 Sudoeste 0 -- -- 73
2018-09-04 08:00:00 14.3 6 Sudeste 16 Sudoeste 0 -- -- 78
2018-09-04 07:00:00 13.6 3 Sudeste 10 Sudeste 0 -- -- 77
2018-09-04 06:00:00 14.5 8 Sudeste 15 Sudeste 0 -- -- 73
2018-09-04 05:00:00 14.6 13 Sur 16 Sur 0 -- -- 72
2018-09-04 04:00:00 13.8 4 Este 13 Sudoeste 0 -- -- 74
2018-09-04 03:00:00 14.6 11 Sudoeste 13 Sudoeste 0 -- -- 70
2018-09-04 02:00:00 16 18 Sudoeste 27 Sudoeste 0 -- -- 64
2018-09-04 01:00:00 16.6 20 Sudoeste 32 Sudoeste 0 -- -- 61
2018-09-04 00:00:00 17.3 16 Sudoeste 32 Sudoeste 0 -- -- 59
2018-09-03 23:00:00 18.1 19 Sudoeste 43 Sudoeste 0 -- -- 55
2018-09-03 22:00:00 17.8 28 Sur 44 Sur 0 -- -- 57
2018-09-03 21:00:00 20 14 Oeste 31 Sudoeste 0 -- -- 47
2018-09-03 20:00:00 19.8 12 Sur 35 Sur 0 -- -- 54
2018-09-03 19:00:00 22.3 13 Sudeste 22 Sudeste 0 -- -- 70
2018-09-03 18:00:00 24.4 14 Este 31 Este 0 -- -- 59
2018-09-03 17:00:00 25.8 11 Sudeste 23 Sudeste 0 -- -- 54
2018-09-03 16:00:00 26.5 10 Sudoeste 26 Sur 0 -- -- 44
2018-09-03 15:00:00 26.4 17 Sudoeste 27 Sudoeste 0 -- -- 49
2018-09-03 14:00:00 25.6 14 Sudoeste 28 Sudoeste 0 -- -- 49
2018-09-03 13:00:00 19.1 20 Sudoeste 26 Sudoeste 0 -- -- 79
2018-09-03 12:00:00 18.4 9 Este 37 Oeste 1.2 -- -- 88
2018-09-03 11:00:00 23.6 3 Noroeste 13 Sudeste 0 -- -- 62
2018-09-03 10:00:00 19.9 9 Sudoeste 14 Sudoeste 0 -- -- 66
2018-09-03 09:00:00 17.5 4 Oeste 25 Sudoeste 0.2 -- -- 76
2018-09-03 08:00:00 16.8 22 Sudoeste 34 Oeste 0 -- -- 94
2018-09-03 07:00:00 16 13 Noroeste 22 Noroeste 0 -- -- 80
2018-09-03 06:00:00 16.1 11 Sudoeste 53 Oeste 1.8 -- -- 76
2018-09-03 05:00:00 17.8 4 Sudoeste 13 Este 0 -- -- 70
2018-09-03 04:00:00 17.9 3 Nordeste 21 Sudoeste 0 -- -- 64
2018-09-03 03:00:00 17.8 3 Sudeste 12 Sur 0 -- -- 63
2018-09-03 02:00:00 18.2 9 Sur 12 Sur 0 -- -- 61
2018-09-03 01:00:00 18.4 4 Sur 8 Sudoeste 0 -- -- 62
2018-09-03 00:00:00 19 6 Sur 9 Sur 0 -- -- 62
2018-09-02 23:00:00 19.2 3 Sur 13 Sur 0 -- -- 62
2018-09-02 22:00:00 20.2 5 Sudeste 10 Sudeste 0 -- -- 60
2018-09-02 21:00:00 21.1 5 Sudeste 9 Sudeste 0 -- -- 57
2018-09-02 20:00:00 22.8 5 Sudeste 21 Sudeste 0 -- -- 52
2018-09-02 19:00:00 25.3 11 Sudeste 23 Sudeste 0 -- -- 43
2018-09-02 18:00:00 26.2 12 Este 24 Este 0 -- -- 41
2018-09-02 17:00:00 26.1 8 Este 19 Este 0 -- -- 42
2018-09-02 16:00:00 26.2 10 Este 20 Este 0 -- -- 38
2018-09-02 15:00:00 27.7 8 Norte 23 Noroeste 0 -- -- 39
2018-09-02 14:00:00 26.8 11 Norte 21 Norte 0 -- -- 39
2018-09-02 13:00:00 25.9 6 Este 24 Este 0 -- -- 42
2018-09-02 12:00:00 24.8 3 Nordeste 12 Este 0 -- -- 49
2018-09-02 11:00:00 23.6 7 Sudeste 12 Sudeste 0 -- -- 51
2018-09-02 10:00:00 22.2 4 Sudeste 7 Sudeste 0 -- -- 53
2018-09-02 09:00:00 19.5 0 Calma 4 Sur 0 -- -- 51
2018-09-02 08:00:00 15.5 5 Sur 6 Sur 0 -- -- 66
2018-09-02 07:00:00 15.3 3 Sur 9 Sudoeste 0 -- -- 62
2018-09-02 06:00:00 15.2 5 Sudoeste 9 Sudoeste 0 -- -- 65
2018-09-02 05:00:00 15.6 3 Oeste 10 Oeste 0 -- -- 63
2018-09-02 04:00:00 15.9 8 Oeste 9 Oeste 0 -- -- 56
2018-09-02 03:00:00 16 4 Noroeste 9 Oeste 0 -- -- 55
2018-09-02 02:00:00 16.3 7 Oeste 9 Oeste 0 -- -- 64
2018-09-02 01:00:00 16.9 5 Noroeste 8 Oeste 0 -- -- 59
2018-09-02 00:00:00 17.4 4 Noroeste 10 Oeste 0 -- -- 56
2018-09-01 23:00:00 17.5 3 Sur 8 Sudoeste 0 -- -- 58
2018-09-01 22:00:00 19.3 2 Noroeste 12 Este 0 -- -- 52
2018-09-01 21:00:00 19.7 3 Sur 8 Nordeste 0 -- -- 51
2018-09-01 20:00:00 22.1 6 Nordeste 18 Nordeste 0 -- -- 46
2018-09-01 19:00:00 23.8 13 Nordeste 23 Este 0 -- -- 41
2018-09-01 18:00:00 25.1 7 Nordeste 22 Nordeste 0 -- -- 40
2018-09-01 17:00:00 25 7 Nordeste 24 Nordeste 0 -- -- 43
2018-09-01 16:00:00 24.4 12 Nordeste 26 Nordeste 0 -- -- 43
2018-09-01 15:00:00 24.7 12 Este 22 Nordeste 0 -- -- 42
2018-09-01 14:00:00 24.9 6 Noroeste 15 Norte 0 -- -- 43
2018-09-01 13:00:00 23.5 8 Nordeste 15 Nordeste 0 -- -- 49
2018-09-01 12:00:00 22.7 7 Noroeste 15 Noroeste 0 -- -- 53
2018-09-01 11:00:00 21.5 5 Norte 10 Noroeste 0 -- -- 54
2018-09-01 10:00:00 20.1 5 Norte 8 Norte 0 -- -- 58
2018-09-01 09:00:00 17.8 0 Calma 4 Oeste 0 -- -- 62
2018-09-01 08:00:00 13.8 2 Noroeste 6 Noroeste 0 -- -- 74
2018-09-01 07:00:00 13.2 0 Calma 10 Oeste 0 -- -- 74
2018-09-01 06:00:00 13.6 6 Noroeste 12 Oeste 0 -- -- 77
2018-09-01 05:00:00 13.9 4 Oeste 9 Sudoeste 0 -- -- 77
2018-09-01 04:00:00 13.8 3 Norte 14 Noroeste 0 -- -- 78
2018-09-01 03:00:00 14.2 11 Noroeste 15 Noroeste 0 -- -- 79
2018-09-01 02:00:00 13.4 2 Noroeste 10 Noroeste 0 -- -- 84
2018-09-01 01:00:00 14.2 0 Calma 10 Noroeste 0 -- -- 81
2018-09-01 00:00:00 14.7 5 Noroeste 23 Norte 0 -- -- 80
2018-08-31 23:00:00 15.6 12 Norte 19 Norte 0 -- -- 77
2018-08-31 22:00:00 16.9 7 Noroeste 11 Norte 0 -- -- 68
2018-08-31 21:00:00 18.4 7 Nordeste 18 Nordeste 0 -- -- 59
2018-08-31 20:00:00 20.1 10 Nordeste 21 Nordeste 0 -- -- 53
2018-08-31 19:00:00 21.8 13 Este 23 Nordeste 0 -- -- 49
2018-08-31 18:00:00 22.7 12 Nordeste 26 Nordeste 0 -- -- 47
2018-08-31 17:00:00 22.7 15 Nordeste 27 Este 0 -- -- 50
2018-08-31 16:00:00 22.7 14 Nordeste 24 Nordeste 0 -- -- 56
2018-08-31 15:00:00 22.7 13 Nordeste 21 Este 0 -- -- 55
2018-08-31 14:00:00 22.8 7 Este 19 Sudeste 0 -- -- 59
2018-08-31 13:00:00 21.8 9 Este 21 Norte 0 -- -- 65
2018-08-31 12:00:00 21.1 13 Norte 18 Norte 0 -- -- 78
2018-08-31 11:00:00 21 9 Norte 21 Sudoeste 0 -- -- 75
2018-08-31 10:00:00 19.7 9 Sudoeste 15 Sudoeste 0 -- -- 81
2018-08-31 09:00:00 16.6 5 Sudeste 11 Sudeste 0 -- -- 85
2018-08-31 08:00:00 15.2 5 Sur 9 Sur 0 -- -- 87
2018-08-31 07:00:00 14.9 8 Sur 12 Sur 0 -- -- 86
2018-08-31 06:00:00 14.7 0 Calma 10 Sur 0 -- -- 89
2018-08-31 05:00:00 14.5 2 Este 10 Sur 0 -- -- 90
2018-08-31 04:00:00 14.3 2 Sur 7 Sudoeste 0 -- -- 91
2018-08-31 03:00:00 14.3 2 Oeste 8 Oeste 0 -- -- 88
2018-08-31 02:00:00 14 4 Noroeste 8 Oeste 0 -- -- 87
2018-08-31 01:00:00 14.6 6 Noroeste 13 Noroeste 0 -- -- 85
2018-08-31 00:00:00 16.7 4 Norte 8 Noroeste 0 -- -- 76
2018-08-30 23:00:00 17.8 2 Noroeste 9 Noroeste 0 -- -- 74
2018-08-30 22:00:00 18.2 4 Norte 11 Sudeste 0 -- -- 77
2018-08-30 21:00:00 18 4 Sudoeste 10 Sur 0 -- -- 84
2018-08-30 20:00:00 19.7 5 Sur 10 Sudeste 0 -- -- 77
2018-08-30 19:00:00 20.4 3 Sudeste 7 Sur 0 -- -- 77
2018-08-30 18:00:00 18.6 6 Oeste 39 Sudoeste 4.2 -- -- 85
2018-08-30 17:00:00 21.8 14 Este 25 Sudeste 0 -- -- 65
2018-08-30 16:00:00 24 10 Este 20 Este 0 -- -- 57
2018-08-30 15:00:00 24.4 10 Este 23 Este 0 -- -- 56
2018-08-30 14:00:00 23.3 12 Este 19 Sudeste 0 -- -- 60
2018-08-30 13:00:00 23.6 10 Sudeste 20 Nordeste 0 -- -- 57
2018-08-30 12:00:00 23.9 8 Sur 15 Sudeste 0 -- -- 57
2018-08-30 11:00:00 21.5 8 Este 15 Este 0 -- -- 63
2018-08-30 10:00:00 18.9 9 Sudeste 12 Sudeste 0 -- -- 71
2018-08-30 09:00:00 16 0 Calma 5 Oeste 0 -- -- 82
2018-08-30 08:00:00 12.8 3 Norte 6 Oeste 0 -- -- 88
2018-08-30 07:00:00 12.6 3 Oeste 12 Sudoeste 0 -- -- 90
2018-08-30 06:00:00 13.1 0 Calma 7 Noroeste 0 -- -- 88
2018-08-30 05:00:00 13.4 3 Norte 12 Noroeste 0 -- -- 89
2018-08-30 04:00:00 13.2 6 Noroeste 13 Noroeste 0 -- -- 89
2018-08-30 03:00:00 13.6 5 Noroeste 10 Norte 0 -- -- 88
2018-08-30 02:00:00 14 7 Norte 13 Noroeste 0 -- -- 88
2018-08-30 01:00:00 14.7 9 Norte 21 Noroeste 0 -- -- 86
2018-08-30 00:00:00 15.2 10 Noroeste 20 Noroeste 0 -- -- 85
2018-08-29 23:00:00 16.2 13 Noroeste 21 Oeste 0 -- -- 79
2018-08-29 22:00:00 17.4 11 Norte 25 Norte 0 -- -- 74
2018-08-29 21:00:00 19.2 15 Norte 23 Norte 0 -- -- 67
2018-08-29 20:00:00 21.1 14 Nordeste 24 Este 0 -- -- 59
2018-08-29 19:00:00 22.6 16 Nordeste 26 Este 0 -- -- 55
2018-08-29 18:00:00 23.2 16 Nordeste 25 Este 0 -- -- 53
2018-08-29 17:00:00 23.4 13 Nordeste 23 Nordeste 0 -- -- 53
2018-08-29 16:00:00 22.1 14 Nordeste 21 Nordeste 0 -- -- 56
2018-08-29 15:00:00 23.5 10 Nordeste 23 Nordeste 0 -- -- 52
2018-08-29 14:00:00 22.9 13 Este 23 Nordeste 0 -- -- 56
2018-08-29 13:00:00 23.1 9 Nordeste 18 Nordeste 0 -- -- 56
2018-08-29 12:00:00 23.3 9 Este 13 Nordeste 0 -- -- 61
2018-08-29 11:00:00 22.8 4 Nordeste 10 Norte 0 -- -- 60
2018-08-29 10:00:00 21.4 7 Norte 12 Noroeste 0 -- -- 61
2018-08-29 09:00:00 18.8 4 Noroeste 11 Oeste 0 -- -- 72
2018-08-29 08:00:00 15.7 12 Sudoeste 20 Sudoeste 0 -- -- 79
2018-08-29 07:00:00 16.2 13 Oeste 24 Oeste 0 -- -- 76
2018-08-29 06:00:00 16.1 20 Sudoeste 26 Oeste 0 -- -- 75
2018-08-29 05:00:00 16.2 22 Sudoeste 27 Sudoeste 0 -- -- 72
2018-08-29 04:00:00 16.9 19 Sudoeste 24 Sudoeste 0 -- -- 66
2018-08-29 03:00:00 15.9 14 Sudoeste 22 Sudoeste 0 -- -- 64
2018-08-29 02:00:00 16.4 17 Sudoeste 40 Sur 0 -- -- 66
2018-08-29 01:00:00 16.9 22 Sudoeste 48 Sur 0 -- -- 64
2018-08-29 00:00:00 16.6 33 Sur 65 Sur 0.4 -- -- 67
2018-08-28 23:00:00 17.4 17 Oeste 34 Noroeste 1.2 -- -- 67
2018-08-28 22:00:00 17.6 14 Sur 42 Sudeste 0.2 -- -- 67
2018-08-28 21:00:00 17.5 12 Sur 47 Sur 1.2 -- -- 79
2018-08-28 20:00:00 20.3 17 Sudoeste 37 Sur 0.2 -- -- 70
2018-08-28 19:00:00 26.3 13 Sudoeste 36 Oeste 0.2 -- -- 52
2018-08-28 18:00:00 25.7 8 Sur 30 Sur 0 -- -- 52
2018-08-28 17:00:00 27.8 15 Sur 32 Sudoeste 0 -- -- 40
2018-08-28 16:00:00 29.7 19 Sudoeste 35 Sudoeste 0 -- -- 36
2018-08-28 15:00:00 27.9 12 Oeste 28 Oeste 0 -- -- 40
2018-08-28 14:00:00 27.8 12 Oeste 30 Sudoeste 0 -- -- 41
2018-08-28 13:00:00 27.5 17 Oeste 31 Oeste 0 -- -- 41
2018-08-28 12:00:00 26.4 13 Oeste 32 Oeste 0 -- -- 44
2018-08-28 11:00:00 24.8 15 Oeste 28 Sudoeste 0 -- -- 52
2018-08-28 10:00:00 21.3 18 Oeste 32 Sudoeste 0 -- -- 64
2018-08-28 09:00:00 19.9 23 Sudoeste 32 Sudoeste 0 -- -- 70
2018-08-28 08:00:00 18.6 26 Sudoeste 34 Sudoeste 0 -- -- 74
2018-08-28 07:00:00 18.3 24 Sudoeste 36 Sudoeste 0 -- -- 76
2018-08-28 06:00:00 18.8 29 Sudoeste 34 Sudoeste 0 -- -- 79
2018-08-28 05:00:00 18.9 8 Sudoeste 24 Sudoeste 0 -- -- 76
2018-08-28 04:00:00 19 17 Sudoeste 35 Sudoeste 0 -- -- 79
2018-08-28 03:00:00 19.3 23 Sudoeste 32 Sudoeste 0 -- -- 75
2018-08-28 02:00:00 20.4 12 Sur 24 Sudoeste 0 -- -- 70
2018-08-28 01:00:00 19.7 8 Sudeste 15 Sudeste 0 -- -- 56
2018-08-28 00:00:00 20.1 8 Sur 13 Sur 0 -- -- 54
2018-08-27 23:00:00 20.5 6 Sur 15 Sudeste 0 -- -- 52
2018-08-27 22:00:00 20.5 8 Sur 11 Sur 0 -- -- 54
2018-08-27 21:00:00 21.9 6 Sur 18 Este 0 -- -- 52
2018-08-27 20:00:00 24.9 12 Este 22 Sudeste 0 -- -- 45
2018-08-27 19:00:00 26.5 14 Este 24 Este 0 -- -- 43
2018-08-27 18:00:00 27.5 14 Este 26 Este 0 -- -- 40
2018-08-27 17:00:00 27.9 12 Sudeste 25 Este 0 -- -- 40
2018-08-27 16:00:00 27.7 13 Este 23 Nordeste 0 -- -- 40
2018-08-27 15:00:00 27.9 11 Este 23 Este 0 -- -- 40
2018-08-27 14:00:00 27.1 13 Nordeste 19 Nordeste 0 -- -- 42
2018-08-27 13:00:00 26 11 Nordeste 22 Nordeste 0 -- -- 46
2018-08-27 12:00:00 27.3 4 Sur 12 Sudoeste 0 -- -- 39
2018-08-27 11:00:00 25.8 5 Sudoeste 14 Sudeste 0 -- -- 46
2018-08-27 10:00:00 22.6 9 Sudeste 15 Sudeste 0 -- -- 56
2018-08-27 09:00:00 19.9 4 Sudeste 9 Sur 0 -- -- 61
2018-08-27 08:00:00 16 3 Sudeste 8 Sur 0 -- -- 65
2018-08-27 07:00:00 15.7 6 Sur 10 Sur 0 -- -- 64
2018-08-27 06:00:00 15.3 5 Sur 9 Sur 0 -- -- 67
2018-08-27 05:00:00 15.3 8 Sur 10 Sur 0 -- -- 66
2018-08-27 04:00:00 15.3 7 Sur 9 Sur 0 -- -- 67
2018-08-27 03:00:00 15.7 0 Calma 10 Sur 0 -- -- 66
2018-08-27 02:00:00 16.1 6 Sur 9 Sur 0 -- -- 67
2018-08-27 01:00:00 16.5 5 Sur 8 Sur 0 -- -- 66
2018-08-27 00:00:00 16.1 5 Sudoeste 9 Sur 0 -- -- 68
2018-08-26 23:00:00 16.9 6 Sur 9 Sur 0 -- -- 66
2018-08-26 22:00:00 18 4 Sur 8 Sur 0 -- -- 61
2018-08-26 21:00:00 19.9 5 Sur 13 Este 0 -- -- 55
2018-08-26 20:00:00 22.6 8 Este 15 Nordeste 0 -- -- 47
2018-08-26 19:00:00 24.1 10 Nordeste 21 Este 0 -- -- 44
2018-08-26 18:00:00 25.3 10 Nordeste 23 Norte 0 -- -- 42
2018-08-26 17:00:00 25.7 15 Norte 24 Norte 0 -- -- 40
2018-08-26 16:00:00 25.1 12 Norte 30 Norte 0 -- -- 41
2018-08-26 15:00:00 24.7 16 Norte 28 Noroeste 0 -- -- 41
2018-08-26 14:00:00 24.2 14 Noroeste 31 Oeste 0 -- -- 42
2018-08-26 13:00:00 23.4 10 Noroeste 22 Noroeste 0 -- -- 48
2018-08-26 12:00:00 21.5 14 Sudoeste 20 Sudoeste 0 -- -- 54
2018-08-26 11:00:00 20.6 9 Oeste 21 Oeste 0 -- -- 58
2018-08-26 10:00:00 18.9 13 Oeste 26 Sudoeste 0 -- -- 68
2018-08-26 09:00:00 14.9 5 Oeste 16 Sudoeste 0 -- -- 83
2018-08-26 08:00:00 11.9 6 Oeste 24 Sudoeste 0 -- -- 90
2018-08-26 07:00:00 12 6 Sudoeste 19 Sudoeste 0 -- -- 86
2018-08-26 06:00:00 10.7 4 Sudeste 10 Sudeste 0 -- -- 88
2018-08-26 05:00:00 11 0 Calma 6 Sudoeste 0 -- -- 87
2018-08-26 04:00:00 10 0 Calma 6 Noroeste 0 -- -- 89
2018-08-26 03:00:00 9.3 3 Oeste 10 Noroeste 0 -- -- 88
2018-08-26 02:00:00 9.4 7 Noroeste 10 Noroeste 0 -- -- 87
2018-08-26 01:00:00 9.9 6 Noroeste 14 Norte 0 -- -- 85
2018-08-26 00:00:00 10.9 8 Noroeste 16 Norte 0 -- -- 82
2018-08-25 23:00:00 11.7 11 Noroeste 17 Noroeste 0 -- -- 79
2018-08-25 22:00:00 12.7 11 Norte 19 Norte 0 -- -- 75
2018-08-25 21:00:00 14.5 12 Norte 19 Norte 0 -- -- 70
2018-08-25 20:00:00 17.2 10 Nordeste 18 Norte 0 -- -- 59
2018-08-25 19:00:00 18.8 12 Nordeste 23 Nordeste 0 -- -- 55
2018-08-25 18:00:00 19.7 13 Nordeste 26 Norte 0 -- -- 51
2018-08-25 17:00:00 20.1 15 Nordeste 25 Nordeste 0 -- -- 51
2018-08-25 16:00:00 22.1 15 Nordeste 25 Nordeste 0 -- -- 47
2018-08-25 15:00:00 22.1 16 Nordeste 25 Este 0 -- -- 48
2018-08-25 14:00:00 22.2 10 Norte 20 Norte 0 -- -- 44
2018-08-25 13:00:00 21.5 10 Norte 15 Norte 0 -- -- 48
2018-08-25 12:00:00 19.7 6 Norte 15 Norte 0 -- -- 53
2018-08-25 11:00:00 17.4 8 Norte 13 Norte 0 -- -- 68
2018-08-25 10:00:00 15.6 4 Norte 10 Norte 0 -- -- 77
2018-08-25 09:00:00 13.4 6 Noroeste 12 Norte 0 -- -- 87
2018-08-25 08:00:00 11.5 8 Noroeste 12 Noroeste 0 -- -- 90
2018-08-25 07:00:00 10.3 4 Noroeste 10 Oeste 0 -- -- 89
2018-08-25 06:00:00 11.3 5 Noroeste 8 Noroeste 0 -- -- 78
2018-08-25 05:00:00 11.2 2 Oeste 5 Oeste 0 -- -- 91
2018-08-25 04:00:00 10.8 3 Noroeste 7 Noroeste 0 -- -- 91
2018-08-25 03:00:00 11 3 Oeste 5 Noroeste 0 -- -- 91
2018-08-25 02:00:00 11.4 2 Oeste 5 Noroeste 0 -- -- 89
2018-08-25 01:00:00 11.5 4 Noroeste 9 Noroeste 0 -- -- 88
2018-08-25 00:00:00 12.1 3 Noroeste 13 Noroeste 0 -- -- 86